Time;durP1;ratioP1;P1;durP2;ratioP2;P2;SDS_P1;SDS_P2;PMS_P1;PMS_P2;Temp;Humidity;BMP_temperature;BMP_pressure;BME280_temperature;BME280_humidity;BME280_pressure;Samples;Min_cycle;Max_cycle;Signal;HPM_P1;HPM_P2
2023/05/09 00:01:12;;;;;;;1.67;1.57;;;;;;;;;;4969932;28;20268;-87
2023/05/09 00:03:38;;;;;;;3.77;1.83;;;;;;;;;;5003333;28;20221;-82
2023/05/09 00:06:04;;;;;;;3.17;1.60;;;;;;;;;;5000884;28;20311;-83
2023/05/09 00:08:30;;;;;;;3.97;1.80;;;;;;;;;;4966795;28;20225;-83
2023/05/09 00:11:00;;;;;;;4.47;1.90;;;;;;;;;;4995304;28;20225;-83
2023/05/09 00:13:28;;;;;;;3.43;1.70;;;;;;;;;;4977011;28;20324;-84
2023/05/09 00:15:53;;;;;;;3.27;1.70;;;;;;;;;;4982087;28;20224;-82
2023/05/09 00:18:22;;;;;;;2.17;1.60;;;;;;;;;;4978651;28;20305;-84
2023/05/09 00:20:52;;;;;;;6.03;2.10;;;;;;;;;;4980751;28;20230;-82
2023/05/09 00:23:17;;;;;;;2.00;1.80;;;;;;;;;;4991786;28;20221;-82
2023/05/09 00:25:45;;;;;;;2.40;1.70;;;;;;;;;;4979062;28;20271;-82
2023/05/09 00:28:10;;;;;;;3.97;1.90;;;;;;;;;;4968534;28;20546;-84
2023/05/09 00:30:38;;;;;;;3.90;1.60;;;;;;;;;;4983895;28;20227;-82
2023/05/09 00:33:05;;;;;;;2.87;1.90;;;;;;;;;;5012547;28;20227;-84
2023/05/09 00:35:33;;;;;;;3.30;1.97;;;;;;;;;;4981660;28;20215;-81
2023/05/09 00:38:01;;;;;;;2.10;1.87;;;;;;;;;;4999541;28;20235;-81
2023/05/09 00:40:27;;;;;;;2.23;1.80;;;;;;;;;;4962222;28;20226;-83
2023/05/09 00:42:57;;;;;;;3.27;1.70;;;;;;;;;;4961666;28;20662;-84
2023/05/09 00:45:25;;;;;;;2.60;1.80;;;;;;;;;;5012349;28;20209;-84
2023/05/09 00:47:53;;;;;;;1.80;1.70;;;;;;;;;;4974981;28;20487;-83
2023/05/09 00:50:19;;;;;;;2.27;2.00;;;;;;;;;;4961616;28;20236;-83
2023/05/09 00:52:47;;;;;;;3.77;2.00;;;;;;;;;;4979011;28;20225;-82
2023/05/09 00:55:13;;;;;;;3.60;1.80;;;;;;;;;;4978403;28;20230;-82
2023/05/09 00:57:39;;;;;;;3.57;1.90;;;;;;;;;;4967937;28;20227;-86
2023/05/09 01:00:05;;;;;;;3.23;2.03;;;;;;;;;;4963628;28;20237;-86
2023/05/09 01:02:36;;;;;;;2.67;2.00;;;;;;;;;;4954270;28;20248;-85
2023/05/09 01:05:06;;;;;;;4.13;2.10;;;;;;;;;;4985705;28;20264;-84
2023/05/09 01:07:44;;;;;;;3.60;2.10;;;;;;;;;;4982328;28;20245;-86
2023/05/09 01:10:21;;;;;;;2.67;2.20;;;;;;;;;;4976466;28;20260;-85
2023/05/09 01:12:58;;;;;;;5.67;2.20;;;;;;;;;;4981348;28;20237;-86
2023/05/09 01:15:34;;;;;;;3.40;1.70;;;;;;;;;;4980341;28;20304;-85
2023/05/09 01:18:09;;;;;;;2.33;2.13;;;;;;;;;;4962758;28;20235;-86
2023/05/09 01:20:45;;;;;;;2.80;1.87;;;;;;;;;;4953892;28;20716;-84
2023/05/09 01:23:32;;;;;;;3.00;2.20;;;;;;;;;;4979029;28;20220;-84
2023/05/09 01:26:29;;;;;;;2.80;2.13;;;;;;;;;;4988980;28;20694;-86
2023/05/09 01:29:14;;;;;;;2.10;1.90;;;;;;;;;;4952956;28;20604;-86
2023/05/09 01:31:40;;;;;;;2.40;2.20;;;;;;;;;;4997127;28;20274;-83
2023/05/09 01:34:05;;;;;;;4.83;2.17;;;;;;;;;;4977278;28;20225;-84
2023/05/09 01:36:33;;;;;;;2.93;2.03;;;;;;;;;;4975910;28;20235;-83
2023/05/09 01:39:01;;;;;;;2.63;2.10;;;;;;;;;;4946002;28;20233;-86
2023/05/09 01:41:28;;;;;;;2.83;2.20;;;;;;;;;;4959695;28;20225;-86
2023/05/09 01:43:54;;;;;;;2.93;2.33;;;;;;;;;;4998000;28;20245;-84
2023/05/09 01:46:19;;;;;;;3.00;1.90;;;;;;;;;;4962080;28;20232;-85
2023/05/09 01:48:52;;;;;;;3.53;2.47;;;;;;;;;;4965992;28;20220;-85
2023/05/09 01:51:23;;;;;;;2.77;2.40;;;;;;;;;;4980577;28;20228;-84
2023/05/09 01:53:49;;;;;;;4.10;2.27;;;;;;;;;;4962442;28;20229;-86
2023/05/09 01:56:14;;;;;;;2.80;2.40;;;;;;;;;;4943483;28;20252;-85
2023/05/09 01:58:42;;;;;;;3.63;2.37;;;;;;;;;;4965630;28;20214;-86
2023/05/09 02:01:07;;;;;;;3.27;2.40;;;;;;;;;;4981299;28;20299;-83
2023/05/09 02:03:36;;;;;;;3.13;2.30;;;;;;;;;;4948947;28;20220;-85
2023/05/09 02:06:01;;;;;;;5.10;2.30;;;;;;;;;;4975806;28;20230;-84
2023/05/09 02:08:28;;;;;;;4.70;2.33;;;;;;;;;;4960202;28;20220;-85
2023/05/09 02:10:53;;;;;;;2.90;2.40;;;;;;;;;;4949565;28;20290;-86
2023/05/09 02:13:22;;;;;;;2.13;1.93;;;;;;;;;;4968140;28;20222;-84
2023/05/09 02:15:50;;;;;;;3.80;2.20;;;;;;;;;;4950086;28;20703;-85
2023/05/09 02:18:16;;;;;;;3.17;2.40;;;;;;;;;;4944952;28;20226;-84
2023/05/09 02:20:46;;;;;;;3.33;2.40;;;;;;;;;;4996171;28;20275;-83
2023/05/09 02:23:14;;;;;;;2.93;2.40;;;;;;;;;;4969409;28;20225;-85
2023/05/09 02:25:42;;;;;;;4.83;2.40;;;;;;;;;;4974563;28;20594;-84
2023/05/09 02:28:10;;;;;;;3.57;2.47;;;;;;;;;;4980430;28;20278;-85
2023/05/09 02:30:41;;;;;;;3.13;2.20;;;;;;;;;;4947800;28;20228;-84
2023/05/09 02:33:09;;;;;;;3.20;2.30;;;;;;;;;;4965795;28;20229;-84
2023/05/09 02:35:34;;;;;;;3.20;2.40;;;;;;;;;;4962479;28;20213;-85
2023/05/09 02:38:00;;;;;;;4.33;2.57;;;;;;;;;;4980530;28;20283;-84
2023/05/09 02:40:27;;;;;;;4.50;2.33;;;;;;;;;;4964017;28;20216;-86
2023/05/09 02:42:52;;;;;;;2.83;2.40;;;;;;;;;;4985811;28;20221;-84
2023/05/09 02:45:39;;;;;;;4.93;2.50;;;;;;;;;;4977774;28;20254;-85
2023/05/09 02:48:05;;;;;;;3.23;2.43;;;;;;;;;;4950308;28;20255;-85
2023/05/09 02:50:33;;;;;;;2.60;2.40;;;;;;;;;;4961826;28;20244;-84
2023/05/09 02:52:58;;;;;;;3.23;2.47;;;;;;;;;;4942634;28;20233;-84
2023/05/09 02:55:24;;;;;;;5.23;2.50;;;;;;;;;;4979005;28;20218;-84
2023/05/09 02:57:52;;;;;;;2.93;2.47;;;;;;;;;;4956015;28;20233;-86
2023/05/09 03:00:18;;;;;;;5.80;2.77;;;;;;;;;;4965082;28;20285;-85
2023/05/09 03:02:44;;;;;;;5.37;2.80;;;;;;;;;;4953840;28;20269;-82
2023/05/09 03:05:14;;;;;;;5.00;2.80;;;;;;;;;;5001426;28;20301;-83
2023/05/09 03:07:40;;;;;;;2.93;2.73;;;;;;;;;;4971125;28;20268;-83
2023/05/09 03:10:07;;;;;;;6.43;2.90;;;;;;;;;;4999281;28;20243;-83
2023/05/09 03:12:37;;;;;;;3.17;2.87;;;;;;;;;;4969781;28;20259;-84
2023/05/09 03:15:05;;;;;;;3.60;2.97;;;;;;;;;;4985493;28;20221;-84
2023/05/09 03:17:40;;;;;;;4.03;2.70;;;;;;;;;;4985708;28;20288;-83
2023/05/09 03:20:06;;;;;;;5.23;2.90;;;;;;;;;;4966012;28;20251;-84
2023/05/09 03:22:32;;;;;;;2.93;2.63;;;;;;;;;;4984523;28;20225;-84
2023/05/09 03:25:03;;;;;;;4.90;2.80;;;;;;;;;;4974704;28;20221;-87
2023/05/09 03:27:31;;;;;;;3.67;3.20;;;;;;;;;;4975271;28;20587;-86
2023/05/09 03:30:16;;;;;;;4.40;2.87;;;;;;;;;;4973618;28;20252;-86
2023/05/09 03:32:43;;;;;;;3.77;2.77;;;;;;;;;;4974079;28;20218;-86
2023/05/09 03:35:09;;;;;;;3.00;2.70;;;;;;;;;;4984210;28;20232;-86
2023/05/09 03:37:35;;;;;;;3.97;2.97;;;;;;;;;;4977045;28;20301;-86
2023/05/09 03:40:02;;;;;;;3.07;2.77;;;;;;;;;;5002801;28;20235;-87
2023/05/09 03:42:33;;;;;;;3.33;2.97;;;;;;;;;;4954547;28;20217;-87
2023/05/09 03:45:02;;;;;;;5.10;2.97;;;;;;;;;;4986237;28;20254;-85
2023/05/09 03:47:30;;;;;;;3.73;2.93;;;;;;;;;;4990354;28;20245;-87
2023/05/09 03:49:56;;;;;;;4.67;3.03;;;;;;;;;;4950024;28;20272;-85
2023/05/09 03:52:22;;;;;;;3.47;3.00;;;;;;;;;;4965082;28;20693;-87
2023/05/09 03:54:50;;;;;;;3.87;3.33;;;;;;;;;;4995907;28;20225;-79
2023/05/09 03:57:16;;;;;;;4.33;3.23;;;;;;;;;;4976925;28;20229;-80
2023/05/09 03:59:44;;;;;;;4.27;3.20;;;;;;;;;;4978736;28;20205;-79
2023/05/09 04:02:14;;;;;;;4.53;3.17;;;;;;;;;;4979332;28;20225;-80
2023/05/09 04:04:42;;;;;;;3.73;3.33;;;;;;;;;;4954114;28;20318;-78
2023/05/09 04:07:07;;;;;;;4.43;3.00;;;;;;;;;;4978564;28;20213;-79
2023/05/09 04:09:33;;;;;;;5.27;3.33;;;;;;;;;;4977426;28;20225;-81
2023/05/09 04:11:59;;;;;;;4.43;3.43;;;;;;;;;;4994597;28;20228;-80
2023/05/09 04:14:25;;;;;;;4.83;3.43;;;;;;;;;;4963050;28;20228;-80
2023/05/09 04:16:51;;;;;;;3.43;3.07;;;;;;;;;;4963479;28;20572;-80
2023/05/09 04:19:16;;;;;;;4.10;3.53;;;;;;;;;;5011803;28;20273;-79
2023/05/09 04:21:42;;;;;;;3.40;3.10;;;;;;;;;;4962986;28;20231;-81
2023/05/09 04:24:08;;;;;;;3.67;3.37;;;;;;;;;;4974594;28;20228;-79
2023/05/09 04:26:42;;;;;;;3.73;3.33;;;;;;;;;;4992058;28;20228;-80
2023/05/09 04:29:14;;;;;;;5.47;3.33;;;;;;;;;;4974260;28;20312;-79
2023/05/09 04:31:42;;;;;;;4.47;3.47;;;;;;;;;;4983265;28;20950;-79
2023/05/09 04:34:12;;;;;;;4.20;3.23;;;;;;;;;;4960834;28;20320;-79
2023/05/09 04:36:38;;;;;;;4.43;3.83;;;;;;;;;;4977181;28;20248;-80
2023/05/09 04:39:09;;;;;;;4.63;3.57;;;;;;;;;;4978216;28;20218;-78
2023/05/09 04:41:37;;;;;;;3.87;3.47;;;;;;;;;;4978717;28;20523;-78
2023/05/09 04:44:03;;;;;;;4.00;3.40;;;;;;;;;;4976322;28;20275;-78
2023/05/09 04:46:28;;;;;;;5.67;3.47;;;;;;;;;;4959492;28;20216;-79
2023/05/09 04:48:56;;;;;;;4.67;3.43;;;;;;;;;;4996000;28;20217;-77
2023/05/09 04:51:22;;;;;;;4.07;3.60;;;;;;;;;;4977217;28;20226;-77
2023/05/09 04:53:49;;;;;;;6.07;3.60;;;;;;;;;;4975042;28;20225;-79
2023/05/09 04:56:20;;;;;;;4.83;3.27;;;;;;;;;;4974526;28;20283;-76
2023/05/09 04:58:47;;;;;;;4.80;3.40;;;;;;;;;;4977516;28;20224;-79
2023/05/09 05:01:13;;;;;;;5.13;3.50;;;;;;;;;;4976104;28;20616;-78
2023/05/09 05:03:40;;;;;;;4.60;3.40;;;;;;;;;;4962707;28;20650;-81
2023/05/09 05:06:07;;;;;;;4.70;3.57;;;;;;;;;;4959410;28;20217;-80
2023/05/09 05:08:36;;;;;;;4.33;3.93;;;;;;;;;;4980016;28;20771;-80
2023/05/09 05:11:05;;;;;;;4.30;3.57;;;;;;;;;;5001417;28;20228;-80
2023/05/09 05:13:30;;;;;;;5.47;3.60;;;;;;;;;;4969970;28;20221;-79
2023/05/09 05:16:04;;;;;;;3.93;3.50;;;;;;;;;;4984859;28;20218;-78
2023/05/09 05:18:29;;;;;;;3.90;3.60;;;;;;;;;;4980162;28;20232;-78
2023/05/09 05:20:55;;;;;;;3.40;3.10;;;;;;;;;;4997989;28;20225;-79
2023/05/09 05:23:23;;;;;;;5.03;3.80;;;;;;;;;;4990770;28;20229;-79
2023/05/09 05:25:52;;;;;;;5.47;3.40;;;;;;;;;;4981641;28;20701;-78
2023/05/09 05:28:18;;;;;;;4.33;3.60;;;;;;;;;;4983111;28;20246;-79
2023/05/09 05:30:46;;;;;;;3.63;3.33;;;;;;;;;;4980833;28;20221;-79
2023/05/09 05:33:11;;;;;;;4.17;3.67;;;;;;;;;;4981463;28;20274;-80
2023/05/09 05:35:40;;;;;;;3.70;3.40;;;;;;;;;;4983626;28;20276;-79
2023/05/09 05:38:05;;;;;;;4.93;3.60;;;;;;;;;;4968142;28;20611;-80
2023/05/09 05:40:31;;;;;;;4.13;3.73;;;;;;;;;;4979886;28;20233;-80
2023/05/09 05:43:01;;;;;;;7.33;3.90;;;;;;;;;;4964240;28;20224;-77
2023/05/09 05:45:29;;;;;;;4.60;3.73;;;;;;;;;;4963305;28;20232;-79
2023/05/09 05:47:55;;;;;;;4.70;3.40;;;;;;;;;;4964982;28;20690;-81
2023/05/09 05:50:22;;;;;;;5.43;3.50;;;;;;;;;;4980599;28;20225;-78
2023/05/09 05:52:48;;;;;;;4.83;3.60;;;;;;;;;;4968705;28;20212;-80
2023/05/09 05:55:18;;;;;;;4.57;3.47;;;;;;;;;;4998303;28;20235;-81
2023/05/09 05:57:44;;;;;;;3.77;3.47;;;;;;;;;;4998150;28;20313;-80
2023/05/09 06:00:13;;;;;;;3.63;3.33;;;;;;;;;;4969249;28;20598;-79
2023/05/09 06:02:43;;;;;;;5.07;3.57;;;;;;;;;;5006934;28;20248;-78
2023/05/09 06:05:19;;;;;;;6.70;3.57;;;;;;;;;;4972987;28;20225;-79
2023/05/09 06:07:45;;;;;;;5.77;3.40;;;;;;;;;;4960115;28;20325;-78
2023/05/09 06:10:14;;;;;;;3.70;3.30;;;;;;;;;;4988928;28;20302;-79
2023/05/09 06:12:42;;;;;;;4.37;3.50;;;;;;;;;;4969283;28;20217;-81
2023/05/09 06:15:11;;;;;;;4.97;3.70;;;;;;;;;;4979220;28;20239;-81
2023/05/09 06:17:40;;;;;;;3.67;3.38;;;;;;;;;;5000267;28;20705;-78
2023/05/09 06:20:06;;;;;;;4.80;3.40;;;;;;;;;;4982237;28;20228;-78
2023/05/09 06:22:32;;;;;;;3.40;3.13;;;;;;;;;;4980586;28;20721;-76
2023/05/09 06:24:57;;;;;;;4.00;3.20;;;;;;;;;;4984571;28;20222;-79
2023/05/09 06:27:26;;;;;;;3.90;3.17;;;;;;;;;;4984449;28;20250;-78
2023/05/09 06:29:51;;;;;;;4.57;3.40;;;;;;;;;;4989928;28;20217;-79
2023/05/09 06:32:18;;;;;;;3.78;3.30;;;;;;;;;;4959642;28;20231;-80
2023/05/09 06:34:43;;;;;;;3.53;3.22;;;;;;;;;;4987574;28;20229;-77
2023/05/09 06:37:09;;;;;;;3.78;3.30;;;;;;;;;;4994527;28;20237;-79
2023/05/09 06:39:35;;;;;;;6.18;3.40;;;;;;;;;;4979611;28;20221;-80
2023/05/09 06:42:03;;;;;;;3.30;3.00;;;;;;;;;;4999403;28;20289;-81
2023/05/09 06:44:36;;;;;;;3.53;3.13;;;;;;;;;;4970491;28;20225;-81
2023/05/09 06:47:06;;;;;;;3.28;2.97;;;;;;;;;;4984598;28;20231;-81
2023/05/09 06:49:37;;;;;;;3.75;3.28;;;;;;;;;;4972215;28;20239;-80
2023/05/09 06:52:03;;;;;;;3.88;3.00;;;;;;;;;;5002225;28;20217;-80
2023/05/09 06:54:28;;;;;;;4.68;3.20;;;;;;;;;;4974459;28;20259;-80
2023/05/09 06:56:56;;;;;;;3.75;2.80;;;;;;;;;;4966746;28;20228;-80
2023/05/09 06:59:22;;;;;;;5.05;3.17;;;;;;;;;;4986352;28;20233;-78
2023/05/09 07:01:47;;;;;;;3.30;3.00;;;;;;;;;;4968953;28;20225;-81
2023/05/09 07:04:17;;;;;;;3.20;2.97;;;;;;;;;;5003057;28;20232;-78
2023/05/09 07:06:45;;;;;;;3.30;2.85;;;;;;;;;;4999258;28;20236;-80
2023/05/09 07:09:13;;;;;;;4.55;2.75;;;;;;;;;;4996443;28;20217;-81
2023/05/09 07:11:39;;;;;;;3.72;2.88;;;;;;;;;;4987245;28;20229;-79
2023/05/09 07:14:07;;;;;;;3.20;2.90;;;;;;;;;;4984327;28;20287;-78
2023/05/09 07:16:32;;;;;;;4.25;3.17;;;;;;;;;;4971360;28;20230;-81
2023/05/09 07:19:02;;;;;;;3.90;2.85;;;;;;;;;;4982927;28;20231;-80
2023/05/09 07:21:28;;;;;;;3.05;2.80;;;;;;;;;;4951114;28;20753;-79
2023/05/09 07:23:54;;;;;;;3.60;2.88;;;;;;;;;;4985529;28;20212;-82
2023/05/09 07:26:23;;;;;;;5.13;2.85;;;;;;;;;;4981363;28;20299;-81
2023/05/09 07:28:48;;;;;;;3.90;2.67;;;;;;;;;;5002615;28;20233;-79
2023/05/09 07:31:16;;;;;;;5.18;2.70;;;;;;;;;;4970374;28;20248;-77
2023/05/09 07:33:42;;;;;;;3.38;2.92;;;;;;;;;;4972027;28;20224;-78
2023/05/09 07:36:11;;;;;;;3.67;2.88;;;;;;;;;;5001544;28;20213;-79
2023/05/09 07:38:40;;;;;;;3.00;2.67;;;;;;;;;;4983383;28;20260;-80
2023/05/09 07:41:05;;;;;;;2.97;2.72;;;;;;;;;;4971363;28;20320;-80
2023/05/09 07:43:33;;;;;;;3.72;2.45;;;;;;;;;;4954918;28;20217;-80
2023/05/09 07:46:01;;;;;;;3.17;2.60;;;;;;;;;;4966440;28;20249;-81
2023/05/09 07:48:29;;;;;;;2.85;2.53;;;;;;;;;;4971057;28;20220;-80
2023/05/09 07:50:54;;;;;;;4.05;2.50;;;;;;;;;;4980520;28;20269;-79
2023/05/09 07:53:25;;;;;;;3.15;2.63;;;;;;;;;;4984572;28;20737;-81
2023/05/09 07:55:51;;;;;;;3.20;2.65;;;;;;;;;;4987280;28;20380;-78
2023/05/09 07:58:17;;;;;;;3.33;2.53;;;;;;;;;;4972786;28;20705;-79
2023/05/09 08:00:47;;;;;;;3.03;2.72;;;;;;;;;;4992395;28;20652;-80
2023/05/09 08:03:13;;;;;;;4.20;2.47;;;;;;;;;;4970842;28;20244;-78
2023/05/09 08:05:38;;;;;;;2.92;2.65;;;;;;;;;;4981510;28;20954;-82
2023/05/09 08:08:04;;;;;;;2.70;2.50;;;;;;;;;;4967191;28;20600;-79
2023/05/09 08:10:31;;;;;;;2.65;2.45;;;;;;;;;;4998816;28;20237;-79
2023/05/09 08:12:58;;;;;;;4.18;2.40;;;;;;;;;;4965005;28;20244;-80
2023/05/09 08:15:24;;;;;;;5.10;2.80;;;;;;;;;;4953796;28;20228;-79
2023/05/09 08:17:50;;;;;;;3.85;2.63;;;;;;;;;;4979297;28;20235;-81
2023/05/09 08:20:16;;;;;;;4.07;2.60;;;;;;;;;;4968516;28;20292;-80
2023/05/09 08:22:41;;;;;;;3.05;2.40;;;;;;;;;;4966380;28;20285;-81
2023/05/09 08:25:07;;;;;;;2.60;2.35;;;;;;;;;;4967364;28;20366;-79
2023/05/09 08:27:33;;;;;;;3.03;2.72;;;;;;;;;;4985826;28;20294;-78
2023/05/09 08:30:01;;;;;;;3.30;2.60;;;;;;;;;;4983423;28;20229;-82
2023/05/09 08:32:26;;;;;;;2.53;2.33;;;;;;;;;;4983109;28;20225;-81
2023/05/09 08:34:57;;;;;;;3.25;2.40;;;;;;;;;;4985031;28;20227;-80
2023/05/09 08:37:23;;;;;;;4.03;2.70;;;;;;;;;;4973702;28;20229;-80
2023/05/09 08:39:51;;;;;;;2.78;2.45;;;;;;;;;;4979879;28;20702;-79
2023/05/09 08:42:19;;;;;;;2.60;2.40;;;;;;;;;;5003506;28;20237;-81
2023/05/09 08:44:45;;;;;;;3.83;2.42;;;;;;;;;;4965112;28;20225;-80
2023/05/09 08:47:10;;;;;;;3.05;2.78;;;;;;;;;;4981291;28;20231;-80
2023/05/09 08:49:39;;;;;;;2.80;2.60;;;;;;;;;;4985388;28;20251;-80
2023/05/09 08:52:07;;;;;;;2.75;2.40;;;;;;;;;;4950657;28;20229;-80
2023/05/09 08:54:32;;;;;;;2.88;2.25;;;;;;;;;;4964131;28;20378;-82
2023/05/09 08:56:58;;;;;;;2.58;2.38;;;;;;;;;;4994678;28;20222;-81
2023/05/09 08:59:24;;;;;;;2.78;2.50;;;;;;;;;;4983321;28;20225;-80
2023/05/09 09:01:49;;;;;;;3.25;2.33;;;;;;;;;;4985938;28;20240;-82
2023/05/09 09:04:15;;;;;;;2.63;2.42;;;;;;;;;;4965932;28;20312;-80
2023/05/09 09:06:43;;;;;;;2.97;2.40;;;;;;;;;;4983876;28;20232;-81
2023/05/09 09:09:12;;;;;;;2.55;2.35;;;;;;;;;;4987857;28;20228;-81
2023/05/09 09:11:38;;;;;;;2.53;2.33;;;;;;;;;;4968720;28;20233;-78
2023/05/09 09:14:15;;;;;;;4.35;2.50;;;;;;;;;;4978621;28;20252;-80
2023/05/09 09:16:42;;;;;;;3.13;2.60;;;;;;;;;;4979999;28;20718;-81
2023/05/09 09:19:15;;;;;;;4.18;2.13;;;;;;;;;;4963658;28;20217;-80
2023/05/09 09:21:42;;;;;;;3.58;2.40;;;;;;;;;;4964095;28;20232;-81
2023/05/09 09:24:07;;;;;;;2.63;2.28;;;;;;;;;;4984945;28;20252;-80
2023/05/09 09:26:33;;;;;;;4.22;2.33;;;;;;;;;;4982204;28;20217;-82
2023/05/09 09:28:58;;;;;;;3.47;2.22;;;;;;;;;;4978697;28;20226;-82
2023/05/09 09:31:26;;;;;;;3.45;2.45;;;;;;;;;;4978929;28;20220;-81
2023/05/09 09:33:51;;;;;;;3.95;2.40;;;;;;;;;;4996022;28;20295;-79
2023/05/09 09:36:27;;;;;;;21.80;3.50;;;;;;;;;;4996830;28;20213;-80
2023/05/09 09:38:57;;;;;;;2.60;2.33;;;;;;;;;;4979324;28;20220;-79
2023/05/09 09:41:37;;;;;;;2.40;2.20;;;;;;;;;;4995085;28;20710;-80
2023/05/09 09:44:20;;;;;;;3.05;2.38;;;;;;;;;;4977740;28;20225;-79
2023/05/09 09:46:54;;;;;;;2.88;2.15;;;;;;;;;;4976881;28;20279;-77
2023/05/09 09:49:23;;;;;;;2.95;2.33;;;;;;;;;;4979005;28;20220;-80
2023/05/09 09:51:53;;;;;;;3.83;2.15;;;;;;;;;;4987460;28;20239;-80
2023/05/09 09:54:24;;;;;;;3.08;2.13;;;;;;;;;;4980550;28;20232;-79
2023/05/09 09:56:55;;;;;;;2.10;2.00;;;;;;;;;;4963328;28;20225;-79
2023/05/09 09:59:23;;;;;;;2.58;2.28;;;;;;;;;;4981730;28;20233;-79
2023/05/09 10:01:59;;;;;;;2.50;2.20;;;;;;;;;;4964690;28;20682;-79
2023/05/09 10:04:28;;;;;;;2.92;2.00;;;;;;;;;;4957341;28;20238;-77
2023/05/09 10:06:54;;;;;;;2.92;2.20;;;;;;;;;;4955298;28;20232;-78
2023/05/09 10:09:21;;;;;;;4.97;2.08;;;;;;;;;;4929410;28;20225;-77
2023/05/09 10:11:53;;;;;;;3.00;1.95;;;;;;;;;;4950047;28;20228;-78
2023/05/09 10:14:23;;;;;;;3.08;1.85;;;;;;;;;;4977166;28;20316;-76
2023/05/09 10:16:53;;;;;;;3.20;2.03;;;;;;;;;;4966807;28;20231;-79
2023/05/09 10:19:19;;;;;;;2.85;1.92;;;;;;;;;;4983106;28;20221;-76
2023/05/09 10:22:06;;;;;;;2.90;2.30;;;;;;;;;;4981784;28;20241;-78
2023/05/09 10:24:46;;;;;;;2.97;1.80;;;;;;;;;;4963075;28;20319;-77
2023/05/09 10:27:12;;;;;;;4.30;1.98;;;;;;;;;;4967051;28;20297;-77
2023/05/09 10:29:41;;;;;;;2.28;2.00;;;;;;;;;;4993909;28;20221;-79
2023/05/09 10:32:46;;;;;;;3.58;2.05;;;;;;;;;;4976074;28;20600;-79
2023/05/09 10:35:12;;;;;;;4.85;2.13;;;;;;;;;;4950742;28;20253;-77
2023/05/09 10:37:38;;;;;;;3.78;1.92;;;;;;;;;;4957669;28;20275;-78
2023/05/09 10:40:04;;;;;;;2.08;1.98;;;;;;;;;;4965173;28;20233;-77
2023/05/09 10:42:30;;;;;;;3.45;2.30;;;;;;;;;;4976186;28;20225;-78
2023/05/09 10:44:56;;;;;;;3.70;2.28;;;;;;;;;;4981930;28;20225;-78
2023/05/09 10:47:23;;;;;;;2.38;2.17;;;;;;;;;;4995417;28;20221;-76
2023/05/09 10:49:48;;;;;;;3.88;2.30;;;;;;;;;;4997843;28;20222;-77
2023/05/09 10:52:14;;;;;;;3.70;2.17;;;;;;;;;;4978859;28;20259;-77
2023/05/09 10:54:39;;;;;;;4.47;2.38;;;;;;;;;;4994975;28;20225;-77
2023/05/09 10:57:08;;;;;;;3.03;2.20;;;;;;;;;;4977379;28;20229;-78
2023/05/09 10:59:42;;;;;;;4.28;2.45;;;;;;;;;;4981287;28;20221;-76
2023/05/09 11:02:12;;;;;;;2.75;2.35;;;;;;;;;;4984375;28;20239;-78
2023/05/09 11:04:38;;;;;;;3.35;2.40;;;;;;;;;;4982772;28;20788;-77
2023/05/09 11:07:03;;;;;;;3.60;2.20;;;;;;;;;;4984521;28;20213;-79
2023/05/09 11:09:32;;;;;;;2.75;2.40;;;;;;;;;;4946814;28;20229;-80
2023/05/09 11:12:08;;;;;;;2.20;2.10;;;;;;;;;;5001664;28;20260;-78
2023/05/09 11:14:44;;;;;;;3.67;2.50;;;;;;;;;;4978258;28;20328;-80
2023/05/09 11:17:11;;;;;;;3.45;2.53;;;;;;;;;;4969411;28;20229;-79
2023/05/09 11:19:45;;;;;;;3.03;2.50;;;;;;;;;;4966004;28;20277;-78
2023/05/09 11:22:25;;;;;;;2.22;2.03;;;;;;;;;;4979092;28;20275;-78
2023/05/09 11:25:06;;;;;;;2.50;2.20;;;;;;;;;;4963732;28;20217;-78
2023/05/09 11:27:44;;;;;;;3.72;2.83;;;;;;;;;;4983678;28;20754;-78
2023/05/09 11:30:16;;;;;;;3.88;2.40;;;;;;;;;;4980183;28;20221;-79
2023/05/09 11:32:45;;;;;;;3.38;2.13;;;;;;;;;;4967070;28;20303;-78
2023/05/09 11:35:16;;;;;;;4.25;2.17;;;;;;;;;;4992959;28;20234;-76
2023/05/09 11:37:45;;;;;;;3.53;2.50;;;;;;;;;;4975444;28;20264;-78
2023/05/09 11:40:11;;;;;;;3.22;2.25;;;;;;;;;;4993797;28;20248;-76
2023/05/09 11:42:37;;;;;;;2.90;2.45;;;;;;;;;;4996074;28;20307;-77
2023/05/09 11:45:03;;;;;;;2.55;2.10;;;;;;;;;;4960401;28;20275;-78
2023/05/09 11:47:31;;;;;;;4.13;2.42;;;;;;;;;;4979412;28;20232;-77
2023/05/09 11:50:00;;;;;;;2.80;2.45;;;;;;;;;;4993395;28;20239;-79
2023/05/09 11:52:25;;;;;;;2.58;2.20;;;;;;;;;;4990431;28;20292;-77
2023/05/09 11:54:53;;;;;;;2.88;2.40;;;;;;;;;;4993457;28;20237;-79
2023/05/09 11:57:19;;;;;;;5.07;2.60;;;;;;;;;;4993839;28;20220;-79
2023/05/09 11:59:44;;;;;;;3.00;2.70;;;;;;;;;;4993667;28;20229;-79
2023/05/09 12:02:10;;;;;;;4.32;2.40;;;;;;;;;;4962340;28;20235;-78
2023/05/09 12:04:35;;;;;;;2.67;2.45;;;;;;;;;;4998497;28;20252;-79
2023/05/09 12:07:01;;;;;;;2.95;2.40;;;;;;;;;;4957043;28;20213;-79
2023/05/09 12:09:33;;;;;;;2.70;2.50;;;;;;;;;;4955292;28;20705;-78
2023/05/09 12:12:02;;;;;;;3.60;2.58;;;;;;;;;;4966485;28;20316;-79
2023/05/09 12:14:32;;;;;;;3.10;2.55;;;;;;;;;;4964217;28;20233;-81
2023/05/09 12:16:58;;;;;;;4.70;2.40;;;;;;;;;;4963760;28;20761;-79
2023/05/09 12:19:24;;;;;;;3.45;2.70;;;;;;;;;;4963375;28;20213;-77
2023/05/09 12:22:02;;;;;;;4.20;2.50;;;;;;;;;;4978458;28;20240;-78
2023/05/09 12:24:30;;;;;;;3.20;2.50;;;;;;;;;;4963600;28;20760;-79
2023/05/09 12:26:56;;;;;;;3.25;2.47;;;;;;;;;;4951732;28;20280;-81
2023/05/09 12:29:22;;;;;;;2.92;2.70;;;;;;;;;;4968653;28;20761;-80
2023/05/09 12:31:48;;;;;;;2.95;2.38;;;;;;;;;;4980847;28;20312;-80
2023/05/09 12:34:13;;;;;;;3.47;2.53;;;;;;;;;;4982557;28;20233;-81
2023/05/09 12:36:39;;;;;;;4.57;2.65;;;;;;;;;;4973780;28;20228;-78
2023/05/09 12:39:09;;;;;;;4.15;2.47;;;;;;;;;;4967368;28;20762;-80
2023/05/09 12:41:52;;;;;;;5.60;2.40;;;;;;;;;;4983917;28;20240;-80
2023/05/09 12:44:24;;;;;;;2.40;2.17;;;;;;;;;;4980938;28;20229;-81
2023/05/09 12:46:57;;;;;;;3.70;2.33;;;;;;;;;;4971057;28;20279;-81
2023/05/09 12:49:23;;;;;;;2.53;2.33;;;;;;;;;;4979753;28;20829;-79
2023/05/09 12:51:52;;;;;;;2.67;2.40;;;;;;;;;;4980097;28;20340;-81
2023/05/09 12:54:25;;;;;;;4.60;2.50;;;;;;;;;;4950621;28;20553;-79
2023/05/09 12:56:51;;;;;;;5.35;2.60;;;;;;;;;;4998994;28;20809;-80
2023/05/09 12:59:23;;;;;;;4.07;2.88;;;;;;;;;;4996224;28;20713;-79
2023/05/09 13:01:57;;;;;;;2.67;2.00;;;;;;;;;;4994707;28;20601;-81
2023/05/09 13:04:30;;;;;;;2.90;2.70;;;;;;;;;;4971583;28;20308;-79
2023/05/09 13:06:56;;;;;;;3.92;2.30;;;;;;;;;;4981007;28;20225;-79
2023/05/09 13:09:23;;;;;;;3.50;2.25;;;;;;;;;;4966918;28;20289;-77
2023/05/09 13:11:49;;;;;;;5.55;2.58;;;;;;;;;;4984595;28;20287;-77
2023/05/09 13:14:15;;;;;;;3.25;2.80;;;;;;;;;;4954172;28;20663;-79
2023/05/09 13:16:43;;;;;;;3.80;2.70;;;;;;;;;;4965880;28;20252;-78
2023/05/09 13:19:08;;;;;;;2.55;2.35;;;;;;;;;;4983515;28;20288;-78
2023/05/09 13:21:34;;;;;;;3.78;2.40;;;;;;;;;;4987445;28;20307;-79
2023/05/09 13:24:03;;;;;;;5.55;2.85;;;;;;;;;;4947420;28;20217;-81
2023/05/09 13:26:28;;;;;;;2.72;2.50;;;;;;;;;;4956460;28;20303;-81
2023/05/09 13:28:54;;;;;;;3.00;2.40;;;;;;;;;;4979130;28;20220;-75
2023/05/09 13:31:27;;;;;;;3.30;2.70;;;;;;;;;;4993556;28;20252;-80
2023/05/09 13:33:57;;;;;;;2.95;2.63;;;;;;;;;;4980732;28;20236;-80
2023/05/09 13:36:25;;;;;;;3.95;2.50;;;;;;;;;;4982299;28;20225;-81
2023/05/09 13:38:57;;;;;;;3.15;2.38;;;;;;;;;;5003685;28;20224;-82
2023/05/09 13:41:26;;;;;;;6.82;2.67;;;;;;;;;;5015321;28;20312;-80
2023/05/09 13:43:51;;;;;;;3.08;2.53;;;;;;;;;;4998044;28;20233;-79
2023/05/09 13:46:17;;;;;;;5.82;2.65;;;;;;;;;;4981711;28;20289;-80
2023/05/09 13:48:43;;;;;;;3.08;2.50;;;;;;;;;;4951507;28;20221;-78
2023/05/09 13:51:09;;;;;;;3.22;2.88;;;;;;;;;;4983214;28;20252;-78
2023/05/09 13:53:35;;;;;;;2.78;2.53;;;;;;;;;;4987583;28;20229;-76
2023/05/09 13:56:01;;;;;;;3.40;2.35;;;;;;;;;;4968990;28;20232;-78
2023/05/09 13:58:26;;;;;;;3.60;2.58;;;;;;;;;;4966229;28;20229;-78
2023/05/09 14:00:54;;;;;;;4.57;2.90;;;;;;;;;;4999543;28;20244;-77
2023/05/09 14:03:19;;;;;;;4.03;2.53;;;;;;;;;;5003761;28;20217;-78
2023/05/09 14:05:48;;;;;;;4.57;2.70;;;;;;;;;;4985138;28;20233;-77
2023/05/09 14:08:13;;;;;;;2.90;2.60;;;;;;;;;;4984091;28;20260;-80
2023/05/09 14:10:41;;;;;;;6.00;2.58;;;;;;;;;;4961599;28;20237;-79
2023/05/09 14:13:11;;;;;;;4.10;2.40;;;;;;;;;;5014982;28;20229;-79
2023/05/09 14:15:36;;;;;;;3.28;2.60;;;;;;;;;;4998940;28;20732;-79
2023/05/09 14:18:02;;;;;;;4.93;2.63;;;;;;;;;;4998309;28;20225;-78
2023/05/09 14:20:27;;;;;;;4.85;2.60;;;;;;;;;;4990374;28;20227;-80
2023/05/09 14:22:59;;;;;;;4.22;2.65;;;;;;;;;;4956793;28;20217;-79
2023/05/09 14:25:25;;;;;;;3.03;2.72;;;;;;;;;;4998526;28;20221;-76
2023/05/09 14:27:54;;;;;;;4.88;2.50;;;;;;;;;;4985486;28;20229;-78
2023/05/09 14:30:25;;;;;;;3.67;2.55;;;;;;;;;;4980089;28;20410;-78
2023/05/09 14:32:51;;;;;;;5.53;2.78;;;;;;;;;;4970378;28;20249;-77
2023/05/09 14:35:19;;;;;;;3.83;2.80;;;;;;;;;;4989943;28;20248;-80
2023/05/09 14:37:44;;;;;;;6.40;3.00;;;;;;;;;;4984403;28;20229;-80
2023/05/09 14:40:10;;;;;;;4.68;2.60;;;;;;;;;;4981948;28;20320;-78
2023/05/09 14:42:36;;;;;;;5.38;2.50;;;;;;;;;;4998539;28;20230;-78
2023/05/09 14:45:06;;;;;;;3.63;2.47;;;;;;;;;;4982237;28;20224;-79
2023/05/09 14:47:36;;;;;;;3.20;2.83;;;;;;;;;;4997352;28;20220;-80
2023/05/09 14:50:04;;;;;;;4.75;2.47;;;;;;;;;;4984103;28;20226;-80